Latest Coastal Weather Observations for Darwin Harbour

IDD60701

Issued at 11:15 pm CST Monday 1 September 2014 (issued every 10 minutes, with the page automatically refreshed every 10 minutes)

About coastal observations | Map of coastal stations | Coastal observations for NT | Marine services | Other Formats
Station Details ID: 014072 Name: DARWIN NTC AWS Lat: -12.47 Lon: 130.85 Height: 0.0 m
Data from the previous 72 hours. | See also: Recent months for locations in Northern Territory
Date/Time
CST
Temp

°C
Wind Pressure Rain
since 9am
mm
Weather Cloud Vis
km
Sea
Height
m
Swell
Dir
 
Speed
knots
Gust
knots
hPa Trend Height
m
Period
s
Dir
01/11:00pm 24.4 SW 9 11 1013.3 - - - - - - - - -
01/10:30pm 24.7 SW 9 11 1013.3 - - - - - - - - -
01/10:00pm 24.9 WSW 8 11 1013.2 - - - - - - - - -
01/09:30pm 25.0 WSW 9 11 1013.0 - - - - - - - - -
01/09:00pm 25.2 WSW 7 9 1012.6 - - - - - - - - -
01/08:30pm 25.3 W 5 8 1012.4 - - - - - - - - -
01/08:00pm 25.6 W 5 7 1012.0 - - - - - - - - -
01/07:30pm 26.0 W 5 7 1011.6 - - - - - - - - -
01/07:00pm 26.4 W 7 10 1011.2 - - - - - - - - -
01/06:30pm 26.7 W 8 11 1010.9 - - - - - - - - -
01/06:00pm 26.9 WNW 6 10 1010.7 - - - - - - - - -
01/05:30pm 26.5 WNW 9 13 1010.6 - - - - - - - - -
01/05:00pm 27.2 NW 7 13 1010.3 - - - - - - - - -
01/04:30pm 27.3 WNW 7 13 1010.1 - - - - - - - - -
01/04:00pm 28.6 NW 7 12 1010.1 - - - - - - - - -
01/03:30pm 28.7 WNW 5 10 1010.2 - - - - - - - - -
01/03:00pm 28.9 NW 6 10 1010.5 - - - - - - - - -
01/02:30pm 28.3 WNW 7 11 1010.8 - - - - - - - - -
01/02:00pm 27.3 WNW 7 9 1011.3 - - - - - - - - -
01/01:30pm 27.3 WNW 5 9 1012.0 - - - - - - - - -
01/01:00pm 26.8 WNW 5 7 1012.6 - - - - - - - - -
01/12:30pm 25.3 W 7 9 1013.1 - - - - - - - - -
01/12:00pm 25.3 W 6 8 1013.6 - - - - - - - - -
01/11:30am 25.6 W 6 8 1014.1 - - - - - - - - -
01/11:00am 25.9 SW 3 7 1014.5 - - - - - - - - -
01/10:30am 25.6 WSW 4 6 1014.8 - - - - - - - - -
01/10:00am 26.4 SSE 1 3 1014.9 - - - - - - - - -
01/09:30am 26.1 E 1 5 1014.9 - - - - - - - - -
01/09:00am 25.8 ENE 2 3 1015.1 - - - - - - - - -
01/08:30am 24.7 ENE 2 4 1015.1 - - - - - - - - -
01/08:00am 24.6 NE 1 3 1014.8 - - - - - - - - -
01/07:30am 23.6 ENE 2 4 1014.8 - - - - - - - - -
01/07:00am 22.4 NE 3 5 1014.6 - - - - - - - - -
01/06:30am 22.2 ENE 3 5 1014.2 - - - - - - - - -
01/06:00am 22.0 ENE 3 6 1013.8 - - - - - - - - -
01/05:30am 22.3 ENE 3 5 1013.5 - - - - - - - - -
01/05:00am 22.4 ENE 3 5 1013.4 - - - - - - - - -
01/04:30am 23.3 E 1 3 1012.9 - - - - - - - - -
01/04:00am 23.3 NE 2 3 1012.6 - - - - - - - - -
01/03:30am 23.1 NE 1 3 1012.6 - - - - - - - - -
01/03:00am 23.4 NNE 3 4 1012.6 - - - - - - - - -
01/02:30am 23.0 ENE 2 6 1012.6 - - - - - - - - -
01/02:00am 23.4 NNE 4 6 1012.6 - - - - - - - - -
01/01:30am 22.8 NNE 7 10 1012.8 - - - - - - - - -
01/01:00am 23.2 NE 1 3 1012.6 - - - - - - - - -
01/12:30am 23.6 NE 4 11 1012.7 - - - - - - - - -
01/12:00am 24.1 WSW 6 8 1012.0 - - - - - - - - -
 
Date/Time
CST
Temp

°C
Wind Pressure Rain
since 9am
mm
Weather Cloud Vis
km
Sea
Height
m
Swell
Dir
 
Speed
knots
Gust
knots
hPa Trend Height
m
Period
s
Dir
31/11:30pm 24.3 WSW 7 9 1012.2 - - - - - - - - -
31/11:00pm 24.5 WSW 7 9 1012.1 - - - - - - - - -
31/10:30pm 24.7 WSW 8 12 1012.1 - - - - - - - - -
31/10:00pm 24.9 WSW 9 11 1012.1 - - - - - - - - -
31/09:30pm 24.9 WSW 8 10 1012.2 - - - - - - - - -
31/09:00pm 24.8 W 8 10 1011.9 - - - - - - - - -
31/08:30pm 25.1 W 6 9 1011.7 - - - - - - - - -
31/08:00pm 25.2 W 7 10 1011.2 - - - - - - - - -
31/07:30pm 25.4 W 8 11 1010.9 - - - - - - - - -
31/07:00pm 25.9 WNW 5 8 1010.5 - - - - - - - - -
31/06:30pm 25.8 NW 7 10 1010.2 - - - - - - - - -
31/06:00pm 26.2 NW 7 11 1009.8 - - - - - - - - -
31/05:30pm 26.9 WNW 6 11 1009.5 - - - - - - - - -
31/05:00pm 26.6 WNW 9 14 1009.6 - - - - - - - - -
31/04:30pm 28.0 NW 6 14 1009.4 - - - - - - - - -
31/04:00pm 27.4 NW 8 14 1009.6 - - - - - - - - -
31/03:30pm 29.2 NW 5 8 1009.5 - - - - - - - - -
31/03:00pm 28.9 NW 5 9 1009.8 - - - - - - - - -
31/02:30pm 27.5 WNW 6 11 1010.2 - - - - - - - - -
31/02:00pm 27.7 WNW 7 12 1010.8 - - - - - - - - -
31/01:30pm 27.3 WNW 7 10 1011.1 - - - - - - - - -
31/01:00pm 26.4 W 5 7 1011.7 - - - - - - - - -
31/12:30pm 25.8 W 5 7 1012.3 - - - - - - - - -
31/12:00pm 25.4 W 5 7 1012.9 - - - - - - - - -
31/11:30am 25.2 W 4 6 1013.5 - - - - - - - - -
31/11:00am 25.6 SSE 4 5 1014.0 - - - - - - - - -
31/10:30am 24.5 S 3 4 1014.4 - - - - - - - - -
31/10:00am 24.6 SE 2 4 1014.6 - - - - - - - - -
31/09:30am 25.4 E 2 4 1014.6 - - - - - - - - -
31/09:00am 24.3 ENE 2 4 1014.5 - - - - - - - - -
31/08:30am 23.5 ENE 3 5 1014.3 - - - - - - - - -
31/08:00am 22.9 ENE 2 4 1013.9 - - - - - - - - -
31/07:30am 22.4 ENE 2 4 1013.7 - - - - - - - - -
31/07:00am 22.0 ENE 3 5 1013.3 - - - - - - - - -
31/06:30am 22.3 NE 3 5 1012.9 - - - - - - - - -
31/06:00am 23.0 NNE 5 9 1012.6 - - - - - - - - -
31/05:30am 22.6 NE 5 9 1012.4 - - - - - - - - -
31/05:00am 22.0 NNE 3 5 1012.3 - - - - - - - - -
31/04:30am 21.0 NE 3 6 1012.3 - - - - - - - - -
31/04:00am 21.0 NE 3 6 1012.4 - - - - - - - - -
31/03:30am 21.8 ENE 4 8 1012.4 - - - - - - - - -
31/03:00am 22.0 ENE 2 5 1012.2 - - - - - - - - -
31/02:30am 22.2 ENE 3 5 1012.5 - - - - - - - - -
31/02:00am 22.9 ENE 2 4 1012.7 - - - - - - - - -
31/01:30am 23.1 NNE 3 5 1012.7 - - - - - - - - -
31/01:00am 22.5 ENE 3 5 1012.8 - - - - - - - - -
31/12:30am 23.0 NE 2 4 1012.9 - - - - - - - - -
31/12:00am 23.8 SW 3 6 1012.7 - - - - - - - - -
 
Date/Time
CST
Temp

°C
Wind Pressure Rain
since 9am
mm
Weather Cloud Vis
km
Sea
Height
m
Swell
Dir
 
Speed
knots
Gust
knots
hPa Trend Height
m
Period
s
Dir
30/11:30pm 23.7 WNW 2 4 1012.9 - - - - - - - - -
30/11:00pm 24.0 WSW 9 12 1012.3 - - - - - - - - -
30/10:30pm 24.3 WSW 7 10 1012.3 - - - - - - - - -
30/10:00pm 24.8 WSW 4 6 1012.4 - - - - - - - - -
30/09:30pm 24.8 WSW 7 10 1012.5 - - - - - - - - -
30/09:00pm 24.9 WSW 5 8 1012.3 - - - - - - - - -
30/08:30pm 25.1 W 4 5 1012.0 - - - - - - - - -
30/08:00pm 25.7 W 5 7 1011.6 - - - - - - - - -
30/07:30pm 25.6 W 5 8 1011.3 - - - - - - - - -
30/07:00pm 25.7 WNW 3 6 1011.1 - - - - - - - - -
30/06:30pm 26.0 NW 5 7 1010.9 - - - - - - - - -
30/06:00pm 26.6 NW 5 10 1010.6 - - - - - - - - -
30/05:30pm 26.7 WNW 7 12 1010.4 - - - - - - - - -
30/05:00pm 27.1 NW 6 10 1010.2 - - - - - - - - -
30/04:30pm 28.4 N 7 12 1009.8 - - - - - - - - -
30/04:00pm 27.9 N 8 12 1009.8 - - - - - - - - -
30/03:30pm 28.0 N 9 14 1010.0 - - - - - - - - -
30/03:00pm 27.8 NNW 7 14 1010.4 - - - - - - - - -
30/02:30pm 27.0 NW 7 11 1010.9 - - - - - - - - -
30/02:00pm 27.5 WNW 7 11 1011.3 - - - - - - - - -
30/01:30pm 27.0 W 8 11 1011.8 - - - - - - - - -
30/01:00pm 25.9 W 7 9 1012.4 - - - - - - - - -
30/12:30pm 25.3 W 7 9 1013.1 - - - - - - - - -
30/12:00pm 25.6 W 5 7 1013.8 - - - - - - - - -
30/11:30am 24.6 W 4 7 1014.6 - - - - - - - - -
30/11:00am 25.0 SSW 3 5 1015.0 - - - - - - - - -
30/10:30am 23.9 S 4 5 1015.4 - - - - - - - - -
30/10:00am 23.7 SSE 4 5 1015.5 - - - - - - - - -
30/09:30am 23.5 SSE 4 5 1015.4 - - - - - - - - -
30/09:00am 23.2 S 3 5 1015.1 - - - - - - - - -
30/08:30am 23.9 W 1 2 1014.8 - - - - - - - - -
30/08:00am 24.0 NNW 1 3 1014.6 - - - - - - - - -
30/07:30am 23.1 NNE 2 4 1014.3 - - - - - - - - -
30/07:00am 22.4 NE 2 4 1014.0 - - - - - - - - -
30/06:30am 22.2 NNE 2 4 1013.9 - - - - - - - - -
30/06:00am 21.4 ENE 4 7 1013.8 - - - - - - - - -
30/05:30am 21.7 NE 3 5 1013.6 - - - - - - - - -
30/05:00am 21.7 ENE 2 5 1013.4 - - - - - - - - -
30/04:30am 21.3 ENE 3 6 1013.2 - - - - - - - - -
30/04:00am 22.2 N 1 3 1013.1 - - - - - - - - -
30/03:30am 22.4 WSW 5 7 1013.0 - - - - - - - - -
30/03:00am 22.6 SW 4 6 1013.2 - - - - - - - - -
30/02:30am 23.0 WSW 5 6 1013.2 - - - - - - - - -
30/02:00am 23.2 WSW 5 7 1013.3 - - - - - - - - -
30/01:30am 23.5 WSW 5 6 1013.6 - - - - - - - - -
30/01:00am 23.9 W 5 6 1013.7 - - - - - - - - -
30/12:30am 24.1 WSW 6 9 1013.6 - - - - - - - - -
30/12:00am 24.4 WSW 6 8 1013.7 - - - - - - - - -
 
Date/Time
CST
Temp

°C
Wind Pressure Rain
since 9am
mm
Weather Cloud Vis
km
Sea
Height
m
Swell
Dir
 
Speed
knots
Gust
knots
hPa Trend Height
m
Period
s
Dir
29/11:30pm 24.4 W 5 7 1013.8 - - - - - - - - -

Other Formats:

Comma delimited format used in spreadsheet applications
http://www.bom.gov.au/fwo/IDD60701/IDD60701.95122.axf

JavaScript Object Notation format (JSON) in row-major order
http://www.bom.gov.au/fwo/IDD60701/IDD60701.95122.json